Time;durP1;ratioP1;P1;durP2;ratioP2;P2;SDS_P1;SDS_P2;PMS_P1;PMS_P2;Temp;Humidity;BMP_temperature;BMP_pressure;BME280_temperature;BME280_humidity;BME280_pressure;Samples;Min_cycle;Max_cycle;Signal;HPM_P1;HPM_P2
2022/07/10 00:00:00;;;;;;;1.80;0.77;;;12.30;99.10;;;;;;5083987;28;20019;-69
2022/07/10 00:02:26;;;;;;;3.13;0.68;;;12.20;99.50;;;;;;5091314;28;20028;-70
2022/07/10 00:04:51;;;;;;;2.42;0.80;;;12.30;99.10;;;;;;5108482;28;20087;-70
2022/07/10 00:07:17;;;;;;;3.80;0.93;;;12.30;99.50;;;;;;5110973;28;20039;-70
2022/07/10 00:09:42;;;;;;;6.60;1.20;;;12.30;99.40;;;;;;5094169;28;20035;-70
2022/07/10 00:12:08;;;;;;;1.83;0.90;;;12.30;99.30;;;;;;5110108;28;20016;-70
2022/07/10 00:14:33;;;;;;;3.55;1.00;;;12.40;99.60;;;;;;5089009;28;20032;-70
2022/07/10 00:16:59;;;;;;;5.20;1.13;;;12.40;99.60;;;;;;5110590;28;20425;-70
2022/07/10 00:19:24;;;;;;;4.40;0.98;;;12.50;98.90;;;;;;5091558;28;20041;-70
2022/07/10 00:21:49;;;;;;;4.90;0.80;;;12.50;98.40;;;;;;5110535;28;20411;-69
2022/07/10 00:24:15;;;;;;;1.58;0.80;;;12.50;98.00;;;;;;5090065;28;20032;-70
2022/07/10 00:26:40;;;;;;;3.28;1.25;;;12.60;97.70;;;;;;5102017;28;20020;-70
2022/07/10 00:29:06;;;;;;;4.35;1.27;;;12.60;97.20;;;;;;5082524;28;20374;-71
2022/07/10 00:31:31;;;;;;;2.08;1.02;;;12.70;96.30;;;;;;5108798;28;20035;-70
2022/07/10 00:33:57;;;;;;;3.25;1.00;;;12.70;96.10;;;;;;5077159;28;20024;-70
2022/07/10 00:36:22;;;;;;;1.85;0.98;;;12.80;95.70;;;;;;5108656;28;20038;-71
2022/07/10 00:38:48;;;;;;;4.15;0.93;;;12.80;95.10;;;;;;5098574;28;20031;-69
2022/07/10 00:41:13;;;;;;;3.60;0.98;;;12.80;94.50;;;;;;5090113;28;20123;-70
2022/07/10 00:43:58;;;;;;;3.90;1.00;;;12.90;94.50;;;;;;5107187;28;20027;-70
2022/07/10 00:46:25;;;;;;;3.35;1.13;;;12.90;94.10;;;;;;5069518;28;20035;-70
2022/07/10 00:48:52;;;;;;;5.10;1.15;;;12.90;93.40;;;;;;5107224;28;20384;-70
2022/07/10 00:51:20;;;;;;;10.48;1.13;;;13.00;92.70;;;;;;5090221;28;20030;-71
2022/07/10 00:53:46;;;;;;;2.88;0.95;;;13.00;92.80;;;;;;5107290;28;20035;-70
2022/07/10 00:56:15;;;;;;;4.05;0.90;;;13.00;92.80;;;;;;5089907;28;20036;-70
2022/07/10 00:58:41;;;;;;;3.25;0.90;;;13.00;92.60;;;;;;5107461;28;20115;-70
2022/07/10 01:01:07;;;;;;;3.03;0.70;;;13.10;92.10;;;;;;5089922;28;20118;-71
2022/07/10 01:03:32;;;;;;;3.35;0.80;;;13.10;92.00;;;;;;5107283;28;20068;-71
2022/07/10 01:05:58;;;;;;;6.95;1.08;;;13.10;91.80;;;;;;5089717;28;20064;-71
2022/07/10 01:08:24;;;;;;;3.63;1.33;;;13.10;91.30;;;;;;5106912;28;20031;-70
2022/07/10 01:10:50;;;;;;;5.82;0.98;;;13.10;90.90;;;;;;5109775;27;20110;-70
2022/07/10 01:13:16;;;;;;;3.30;1.10;;;13.10;90.80;;;;;;5089257;28;20111;-69
2022/07/10 01:15:42;;;;;;;6.15;1.13;;;13.20;90.90;;;;;;5109706;28;20114;-70
2022/07/10 01:18:08;;;;;;;5.95;1.38;;;13.10;90.40;;;;;;5091840;28;20032;-71
2022/07/10 01:20:33;;;;;;;3.22;0.90;;;13.20;90.50;;;;;;5109593;28;20549;-70
2022/07/10 01:23:00;;;;;;;5.18;0.93;;;13.20;90.30;;;;;;5090545;28;20061;-70
2022/07/10 01:25:25;;;;;;;2.67;0.70;;;13.20;90.10;;;;;;5089156;28;20016;-71
2022/07/10 01:27:51;;;;;;;6.25;1.30;;;13.20;88.90;;;;;;5090531;28;20028;-70
2022/07/10 01:30:20;;;;;;;3.78;0.80;;;13.20;89.00;;;;;;5104331;27;20044;-70
2022/07/10 01:32:47;;;;;;;4.45;1.05;;;13.20;89.70;;;;;;5088442;28;20024;-69
2022/07/10 01:35:12;;;;;;;2.22;0.98;;;13.20;88.90;;;;;;5109294;28;20026;-70
2022/07/10 01:37:39;;;;;;;2.28;0.82;;;13.30;89.60;;;;;;5086918;28;20415;-70
2022/07/10 01:40:06;;;;;;;3.95;0.95;;;13.30;88.50;;;;;;5106981;28;20052;-71
2022/07/10 01:42:32;;;;;;;3.03;0.75;;;13.30;88.30;;;;;;5089366;28;20042;-71
2022/07/10 01:44:57;;;;;;;2.70;0.93;;;13.30;87.80;;;;;;5106309;28;20395;-70
2022/07/10 01:47:25;;;;;;;2.08;0.70;;;13.30;87.90;;;;;;5089192;28;20028;-71
2022/07/10 01:49:52;;;;;;;2.63;0.70;;;13.30;87.50;;;;;;5106680;28;20031;-71
2022/07/10 01:52:18;;;;;;;2.50;0.70;;;13.30;87.00;;;;;;5109254;28;20062;-72
2022/07/10 01:54:43;;;;;;;1.80;0.70;;;13.30;87.20;;;;;;5093308;28;20456;-71
2022/07/10 01:57:09;;;;;;;3.90;1.08;;;13.30;86.80;;;;;;5095716;28;20039;-71
2022/07/10 01:59:34;;;;;;;9.63;1.30;;;13.30;86.60;;;;;;5108519;28;20430;-71
2022/07/10 02:02:00;;;;;;;4.13;0.98;;;13.30;86.10;;;;;;5094666;28;20027;-70
2022/07/10 02:04:41;;;;;;;3.30;1.00;;;13.30;85.80;;;;;;5109060;28;20069;-70
2022/07/10 02:07:11;;;;;;;4.30;0.82;;;13.40;86.10;;;;;;5083330;28;20036;-71
2022/07/10 02:09:37;;;;;;;3.10;0.88;;;13.30;85.90;;;;;;5088532;28;20028;-71
2022/07/10 02:12:03;;;;;;;4.18;0.80;;;13.40;85.90;;;;;;5106107;28;20023;-70
2022/07/10 02:14:28;;;;;;;4.05;0.90;;;13.40;86.40;;;;;;5085210;28;20102;-71
2022/07/10 02:16:54;;;;;;;4.78;0.70;;;13.30;85.90;;;;;;5106037;28;20036;-70
2022/07/10 02:19:19;;;;;;;2.00;0.68;;;13.40;86.10;;;;;;5068838;28;20021;-71
2022/07/10 02:21:46;;;;;;;3.95;0.68;;;13.30;86.30;;;;;;5106988;28;20392;-70
2022/07/10 02:24:11;;;;;;;4.85;1.15;;;13.30;86.20;;;;;;5079044;28;20024;-72
2022/07/10 02:26:37;;;;;;;2.50;0.70;;;13.30;85.40;;;;;;5095533;28;20035;-71
2022/07/10 02:29:02;;;;;;;2.65;1.05;;;13.30;84.30;;;;;;5070985;28;20032;-71
2022/07/10 02:31:28;;;;;;;2.60;0.70;;;13.30;84.80;;;;;;5107297;28;20062;-71
2022/07/10 02:33:53;;;;;;;6.97;1.05;;;13.40;84.10;;;;;;5072024;28;20161;-72
2022/07/10 02:36:19;;;;;;;1.90;0.60;;;13.30;83.90;;;;;;5106218;28;20111;-71
2022/07/10 02:38:44;;;;;;;2.50;0.70;;;13.30;83.20;;;;;;5073221;28;20032;-72
2022/07/10 02:41:10;;;;;;;1.70;0.70;;;13.30;83.20;;;;;;5107183;28;20118;-71
2022/07/10 02:43:35;;;;;;;1.08;0.50;;;13.30;83.80;;;;;;5074405;28;20039;-70
2022/07/10 02:46:01;;;;;;;4.18;0.68;;;13.40;83.70;;;;;;5076005;28;20559;-70
2022/07/10 02:48:27;;;;;;;2.78;0.60;;;13.40;83.50;;;;;;5078168;28;20036;-71
2022/07/10 02:50:53;;;;;;;2.42;0.75;;;13.30;82.90;;;;;;5074994;28;20485;-70
2022/07/10 02:53:18;;;;;;;1.30;0.63;;;13.30;82.90;;;;;;5070665;28;20121;-70
2022/07/10 02:55:44;;;;;;;3.50;0.70;;;13.30;81.60;;;;;;5086000;28;20043;-70
2022/07/10 02:58:10;;;;;;;1.45;0.60;;;13.40;82.70;;;;;;5070409;28;20036;-71
2022/07/10 03:00:36;;;;;;;3.97;0.82;;;13.30;82.50;;;;;;5086477;28;20040;-72
2022/07/10 03:03:02;;;;;;;7.65;0.80;;;13.30;82.20;;;;;;5071030;28;20506;-70
2022/07/10 03:05:28;;;;;;;3.03;0.63;;;13.30;82.80;;;;;;5088450;28;20067;-70
2022/07/10 03:07:54;;;;;;;2.22;0.57;;;13.30;82.90;;;;;;5084130;28;20064;-70
2022/07/10 03:10:19;;;;;;;5.05;0.80;;;13.30;83.40;;;;;;5087049;28;20131;-71
2022/07/10 03:12:45;;;;;;;4.43;1.17;;;13.30;82.60;;;;;;5081107;28;20024;-71
2022/07/10 03:15:10;;;;;;;2.88;0.70;;;13.30;83.10;;;;;;5084217;28;20028;-72
2022/07/10 03:17:36;;;;;;;2.50;0.70;;;13.30;83.00;;;;;;5079227;28;20492;-70
2022/07/10 03:20:02;;;;;;;3.72;0.82;;;13.30;82.90;;;;;;5087059;28;20039;-70
2022/07/10 03:22:28;;;;;;;1.85;0.63;;;13.30;83.70;;;;;;5076275;28;20024;-71
2022/07/10 03:24:54;;;;;;;3.92;0.80;;;13.30;83.10;;;;;;5081630;28;20036;-70
2022/07/10 03:27:19;;;;;;;2.63;0.70;;;13.40;83.50;;;;;;5094779;28;20021;-70
2022/07/10 03:29:46;;;;;;;3.10;0.75;;;13.30;83.60;;;;;;5069324;28;20032;-70
2022/07/10 03:32:11;;;;;;;1.75;0.50;;;13.40;84.40;;;;;;5074100;28;20465;-70
2022/07/10 03:34:37;;;;;;;5.65;0.70;;;13.40;83.60;;;;;;5068732;28;20029;-70
2022/07/10 03:37:03;;;;;;;1.13;0.43;;;13.40;84.00;;;;;;5077785;28;20055;-70
2022/07/10 03:39:28;;;;;;;3.15;0.90;;;13.40;82.80;;;;;;5098936;28;20039;-72
2022/07/10 03:41:54;;;;;;;3.00;1.15;;;13.40;83.50;;;;;;5077854;28;20028;-70
2022/07/10 03:44:19;;;;;;;4.43;0.80;;;13.40;83.20;;;;;;5095903;28;20035;-71
2022/07/10 03:46:45;;;;;;;3.97;0.55;;;13.40;83.10;;;;;;5072778;28;20033;-71
2022/07/10 03:49:11;;;;;;;3.92;0.75;;;13.50;82.40;;;;;;5091249;28;20019;-71
2022/07/10 03:51:36;;;;;;;3.15;0.70;;;13.50;82.20;;;;;;5075520;28;20025;-71
2022/07/10 03:54:02;;;;;;;1.67;0.60;;;13.50;82.20;;;;;;5091706;28;20034;-71
2022/07/10 03:59:12;;;;;;;1.88;0.70;;;13.50;81.00;;;;;;5074273;28;20031;-71
2022/07/10 04:01:37;;;;;;;4.40;0.70;;;13.50;81.50;;;;;;5072985;28;20055;-71
2022/07/10 04:04:03;;;;;;;2.42;0.75;;;13.60;81.60;;;;;;5075526;28;20043;-71
2022/07/10 04:06:28;;;;;;;1.80;0.70;;;13.60;81.60;;;;;;5068593;28;20066;-71
2022/07/10 04:08:54;;;;;;;1.38;0.65;;;13.60;81.10;;;;;;5084466;28;20097;-71
2022/07/10 04:11:19;;;;;;;4.15;0.93;;;13.60;80.10;;;;;;5070740;28;20020;-71
2022/07/10 04:13:45;;;;;;;2.33;0.50;;;13.70;79.70;;;;;;5090882;28;20080;-70
2022/07/10 04:16:12;;;;;;;2.28;0.85;;;13.80;80.00;;;;;;5067827;28;20438;-72
2022/07/10 04:18:39;;;;;;;3.20;0.60;;;13.90;79.20;;;;;;5073436;28;20025;-71
2022/07/10 04:21:05;;;;;;;2.75;0.50;;;13.90;79.20;;;;;;5070128;28;20068;-72
2022/07/10 04:23:31;;;;;;;3.78;1.05;;;14.00;79.10;;;;;;5080832;28;20081;-72
2022/07/10 04:25:57;;;;;;;4.05;1.00;;;14.10;76.60;;;;;;5087285;28;20032;-71
2022/07/10 04:28:22;;;;;;;3.22;0.80;;;14.10;77.40;;;;;;5091331;28;20506;-71
2022/07/10 04:30:48;;;;;;;3.65;0.73;;;14.10;77.30;;;;;;5078368;28;20052;-70
2022/07/10 04:33:13;;;;;;;3.92;0.98;;;14.10;77.50;;;;;;5094671;28;20483;-71
2022/07/10 04:35:39;;;;;;;1.05;0.60;;;14.10;78.60;;;;;;5083364;28;20036;-71
2022/07/10 04:38:04;;;;;;;1.85;0.60;;;14.10;80.10;;;;;;5091158;28;20395;-71
2022/07/10 04:40:30;;;;;;;4.13;0.70;;;14.10;80.30;;;;;;5073348;28;20047;-71
2022/07/10 04:42:55;;;;;;;3.42;0.60;;;14.10;80.40;;;;;;5084528;28;20518;-72
2022/07/10 04:45:21;;;;;;;1.55;0.50;;;14.10;80.00;;;;;;5075596;28;20231;-71
2022/07/10 04:47:46;;;;;;;4.97;0.63;;;14.10;80.40;;;;;;5084324;28;20181;-69
2022/07/10 04:50:12;;;;;;;3.60;0.70;;;14.10;80.00;;;;;;5082692;28;20428;-71
2022/07/10 04:52:37;;;;;;;2.00;0.52;;;14.10;79.60;;;;;;5084993;28;20034;-71
2022/07/10 04:55:03;;;;;;;3.80;0.80;;;14.20;79.40;;;;;;5077166;28;20032;-72
2022/07/10 04:57:28;;;;;;;3.40;0.85;;;14.30;77.00;;;;;;5083777;28;20078;-70
2022/07/10 04:59:54;;;;;;;5.20;0.98;;;14.40;77.30;;;;;;5074392;28;20024;-70
2022/07/10 05:02:19;;;;;;;1.25;0.70;;;14.40;75.20;;;;;;5067168;28;20042;-71
2022/07/10 05:04:45;;;;;;;4.28;1.27;;;14.50;75.30;;;;;;5071368;28;20042;-72
2022/07/10 05:07:11;;;;;;;4.15;1.00;;;14.60;73.80;;;;;;5065154;28;20035;-71
2022/07/10 05:09:36;;;;;;;1.48;0.70;;;14.70;74.10;;;;;;5073728;28;20036;-71
2022/07/10 05:12:02;;;;;;;2.22;0.68;;;14.90;72.80;;;;;;5066222;28;20024;-71
2022/07/10 05:14:28;;;;;;;2.00;0.70;;;15.00;71.80;;;;;;5085321;28;20031;-71
2022/07/10 05:16:53;;;;;;;2.78;0.60;;;15.10;71.40;;;;;;5087377;28;20020;-70
2022/07/10 05:19:19;;;;;;;2.75;0.57;;;15.30;70.10;;;;;;5075293;28;20051;-71
2022/07/10 05:21:44;;;;;;;5.28;0.80;;;15.50;69.30;;;;;;5084246;28;20031;-70
2022/07/10 05:24:10;;;;;;;2.65;0.68;;;15.60;68.10;;;;;;5069966;28;20116;-70
2022/07/10 05:26:36;;;;;;;2.38;0.95;;;15.60;66.60;;;;;;5093928;28;20028;-71
2022/07/10 05:29:01;;;;;;;1.95;0.70;;;15.60;66.70;;;;;;5068592;28;20115;-69
2022/07/10 05:31:27;;;;;;;2.63;0.85;;;15.50;66.00;;;;;;5084600;28;20131;-71
2022/07/10 05:33:52;;;;;;;4.35;1.05;;;15.50;67.80;;;;;;5069393;28;20086;-71
2022/07/10 05:36:18;;;;;;;3.63;1.05;;;15.50;67.60;;;;;;5065163;28;20565;-71
2022/07/10 05:38:43;;;;;;;3.45;0.98;;;15.50;65.80;;;;;;5068234;28;20523;-71
2022/07/10 05:41:09;;;;;;;4.63;1.13;;;15.50;65.30;;;;;;5067716;28;20032;-70
2022/07/10 05:43:35;;;;;;;4.13;1.20;;;15.40;65.30;;;;;;5069804;28;20107;-72
2022/07/10 05:46:00;;;;;;;2.38;1.02;;;15.40;65.60;;;;;;5070307;28;20033;-71
2022/07/10 05:48:26;;;;;;;3.50;1.20;;;15.30;64.50;;;;;;5073387;28;20024;-71
2022/07/10 05:50:52;;;;;;;3.42;0.80;;;15.30;64.60;;;;;;5073141;28;20515;-71
2022/07/10 05:53:19;;;;;;;3.22;1.38;;;15.20;65.70;;;;;;5071950;28;20496;-72
2022/07/10 05:55:46;;;;;;;5.65;1.40;;;15.20;66.60;;;;;;5074745;28;20107;-43
2022/07/10 05:58:12;;;;;;;4.75;1.20;;;15.20;65.60;;;;;;5071001;28;20074;-60
2022/07/10 06:00:37;;;;;;;3.75;1.17;;;15.40;65.60;;;;;;5076060;28;20504;-51
2022/07/10 06:03:03;;;;;;;4.78;0.95;;;15.70;64.80;;;;;;5070906;28;20131;-49
2022/07/10 06:05:29;;;;;;;2.90;0.95;;;16.20;62.60;;;;;;5073432;28;20049;-53
2022/07/10 06:07:54;;;;;;;2.42;0.82;;;16.90;58.70;;;;;;5071439;28;20033;-52
2022/07/10 06:10:19;;;;;;;4.35;1.08;;;18.20;53.90;;;;;;5081226;28;20028;-52
2022/07/10 06:12:45;;;;;;;3.17;0.90;;;18.50;50.60;;;;;;5071216;28;20139;-50
2022/07/10 06:15:11;;;;;;;2.53;1.10;;;18.30;49.10;;;;;;5099010;28;20031;-49
2022/07/10 06:17:36;;;;;;;3.40;1.00;;;18.10;49.40;;;;;;5075905;28;20039;-53
2022/07/10 06:20:02;;;;;;;5.68;1.15;;;18.00;47.50;;;;;;5100892;28;20547;-51
2022/07/10 06:22:31;;;;;;;3.78;1.30;;;17.70;49.40;;;;;;5070187;28;20485;-51
2022/07/10 06:25:02;;;;;;;5.22;1.02;;;17.50;47.20;;;;;;5098961;28;20084;-50
2022/07/10 06:27:28;;;;;;;4.10;1.00;;;17.60;48.30;;;;;;5090400;28;20408;-52
2022/07/10 06:29:54;;;;;;;3.25;1.00;;;18.00;47.70;;;;;;5099865;28;20035;-49
2022/07/10 06:32:20;;;;;;;7.18;1.67;;;18.30;45.80;;;;;;5075296;28;20509;-52
2022/07/10 06:34:45;;;;;;;5.10;1.08;;;18.10;44.40;;;;;;5098119;28;20034;-53
2022/07/10 06:37:11;;;;;;;3.63;1.10;;;18.10;46.00;;;;;;5074996;28;20028;-48
2022/07/10 06:39:36;;;;;;;5.05;1.23;;;18.00;46.40;;;;;;5090833;28;20034;-54
2022/07/10 06:42:03;;;;;;;4.38;1.15;;;17.90;46.50;;;;;;5075101;28;20036;-52
2022/07/10 06:44:28;;;;;;;2.22;0.85;;;17.80;46.40;;;;;;5092418;28;20615;-50
2022/07/10 06:49:40;;;;;;;3.78;0.98;;;17.60;45.90;;;;;;5083596;28;20088;-51
2022/07/10 06:52:06;;;;;;;2.70;0.82;;;17.60;43.10;;;;;;5069999;28;20054;-53
2022/07/10 06:54:32;;;;;;;4.53;0.98;;;17.50;45.60;;;;;;5084400;28;20491;-52
2022/07/10 06:56:58;;;;;;;3.33;0.90;;;17.40;45.10;;;;;;5070179;28;20035;-50
2022/07/10 06:59:23;;;;;;;3.08;1.00;;;17.30;45.10;;;;;;5084361;28;20035;-51
2022/07/10 07:01:49;;;;;;;4.65;0.90;;;17.00;45.90;;;;;;5070241;28;20041;-51
2022/07/10 07:04:14;;;;;;;4.72;1.33;;;16.90;47.30;;;;;;5092667;28;20692;-52
2022/07/10 07:06:40;;;;;;;4.35;1.15;;;16.70;48.30;;;;;;5069005;28;20025;-51
2022/07/10 07:09:05;;;;;;;5.47;1.15;;;16.50;49.00;;;;;;5091257;28;20452;-53
2022/07/10 07:11:31;;;;;;;4.53;1.08;;;16.30;47.80;;;;;;5069514;28;20080;-48
2022/07/10 07:13:56;;;;;;;7.43;1.30;;;16.30;49.80;;;;;;5087359;28;20028;-50
2022/07/10 07:16:37;;;;;;;6.97;1.27;;;16.30;50.60;;;;;;5087735;28;20040;-48
2022/07/10 07:19:04;;;;;;;1.95;1.10;;;16.30;50.30;;;;;;5071691;28;20032;-50
2022/07/10 07:24:14;;;;;;;1.90;0.90;;;16.50;50.60;;;;;;5080863;28;20051;-48
2022/07/10 07:26:39;;;;;;;3.75;1.10;;;16.70;48.80;;;;;;5088678;28;20028;-45
2022/07/10 07:29:05;;;;;;;6.25;1.40;;;16.70;45.90;;;;;;5090245;28;20020;-49
2022/07/10 07:31:30;;;;;;;6.68;2.00;;;16.70;46.40;;;;;;5083957;28;20676;-46
2022/07/10 07:33:57;;;;;;;5.30;1.02;;;16.70;45.10;;;;;;5088332;28;20044;-45
2022/07/10 07:36:23;;;;;;;2.47;1.00;;;16.60;46.20;;;;;;5106765;28;20023;-45
2022/07/10 07:38:49;;;;;;;4.45;1.25;;;16.60;46.20;;;;;;5112081;28;20076;-52
2022/07/10 07:41:15;;;;;;;4.95;1.17;;;16.50;47.10;;;;;;5071100;28;20041;-45
2022/07/10 07:43:40;;;;;;;3.20;1.30;;;16.40;47.20;;;;;;5108063;28;20099;-45
2022/07/10 07:46:06;;;;;;;4.43;1.10;;;16.40;47.00;;;;;;5074288;28;20411;-47
2022/07/10 07:48:31;;;;;;;4.32;1.20;;;16.40;44.50;;;;;;5106274;28;20031;-45
2022/07/10 07:50:57;;;;;;;5.45;1.10;;;16.40;45.90;;;;;;5076071;28;20512;-45
2022/07/10 07:53:23;;;;;;;2.05;1.00;;;16.50;46.90;;;;;;5110257;28;20042;-45
2022/07/10 07:55:49;;;;;;;3.63;1.10;;;16.60;47.00;;;;;;5074517;28;20500;-47
2022/07/10 07:58:14;;;;;;;3.88;1.13;;;16.70;46.60;;;;;;5110199;28;20080;-45
2022/07/10 08:00:40;;;;;;;5.75;1.40;;;16.70;46.20;;;;;;5075533;28;20074;-45
2022/07/10 08:03:05;;;;;;;4.47;1.05;;;16.80;45.10;;;;;;5110103;28;20110;-45
2022/07/10 08:05:31;;;;;;;4.07;1.13;;;16.80;46.70;;;;;;5076880;28;20446;-48
2022/07/10 08:08:01;;;;;;;6.35;1.33;;;16.70;44.70;;;;;;5109841;28;20027;-48
2022/07/10 08:10:27;;;;;;;3.35;1.33;;;16.70;45.40;;;;;;5076837;28;20510;-45
2022/07/10 08:12:53;;;;;;;6.57;1.25;;;16.70;44.60;;;;;;5110256;28;20036;-45
2022/07/10 08:15:23;;;;;;;3.90;1.17;;;16.60;43.50;;;;;;5095686;28;20039;-46
2022/07/10 08:17:57;;;;;;;2.83;1.33;;;16.60;43.70;;;;;;5090774;28;20028;-45
2022/07/10 08:20:25;;;;;;;4.53;1.33;;;16.70;42.10;;;;;;5085429;28;20591;-45
2022/07/10 08:22:52;;;;;;;3.70;1.05;;;16.60;40.80;;;;;;5110262;28;20165;-45
2022/07/10 08:25:18;;;;;;;4.65;1.30;;;16.70;42.20;;;;;;5099852;28;20121;-45
2022/07/10 08:27:44;;;;;;;6.25;1.58;;;16.70;42.00;;;;;;5107894;28;20398;-45
2022/07/10 08:30:10;;;;;;;5.22;1.15;;;16.80;41.80;;;;;;5098432;28;20059;-47
2022/07/10 08:32:39;;;;;;;4.90;1.20;;;16.80;40.00;;;;;;5090612;28;20076;-49
2022/07/10 08:35:06;;;;;;;5.05;1.00;;;16.80;39.10;;;;;;5108328;28;20031;-48
2022/07/10 08:37:42;;;;;;;5.28;1.48;;;16.90;40.70;;;;;;5090682;28;20032;-46
2022/07/10 08:40:09;;;;;;;7.18;1.48;;;17.00;37.10;;;;;;5086941;28;20051;-47
2022/07/10 08:42:35;;;;;;;3.60;1.23;;;17.10;39.10;;;;;;5090698;28;20035;-47
2022/07/10 08:45:01;;;;;;;3.67;1.15;;;17.30;39.00;;;;;;5107737;28;20434;-46
2022/07/10 08:47:30;;;;;;;5.03;1.05;;;17.50;38.70;;;;;;5090275;28;20054;-46
2022/07/10 08:49:56;;;;;;;5.90;1.30;;;17.80;38.20;;;;;;5099874;28;20088;-45
2022/07/10 08:52:33;;;;;;;4.47;1.42;;;18.00;37.50;;;;;;5090574;28;20028;-46
2022/07/10 08:54:58;;;;;;;3.65;1.30;;;18.20;34.60;;;;;;5084022;28;20110;-45
2022/07/10 08:57:25;;;;;;;5.97;1.23;;;18.40;34.80;;;;;;5088968;28;20191;-46
2022/07/10 08:59:50;;;;;;;4.95;1.60;;;18.60;33.60;;;;;;5107608;28;20110;-50
2022/07/10 09:02:16;;;;;;;4.53;1.17;;;18.60;34.20;;;;;;5110151;28;20123;-45
2022/07/10 09:04:42;;;;;;;5.15;1.42;;;18.40;31.60;;;;;;5093708;28;20532;-48
2022/07/10 09:07:08;;;;;;;5.60;1.33;;;18.40;31.80;;;;;;5110078;28;20039;-47
2022/07/10 09:09:51;;;;;;;7.30;1.75;;;18.40;32.60;;;;;;5092862;28;20043;-48
2022/07/10 09:12:17;;;;;;;5.30;1.13;;;18.50;28.70;;;;;;5110191;28;20020;-47
2022/07/10 09:14:42;;;;;;;4.00;1.17;;;18.60;31.60;;;;;;5090119;28;20041;-46
2022/07/10 09:17:08;;;;;;;4.75;1.20;;;18.70;31.00;;;;;;5109684;28;20040;-46
2022/07/10 09:19:34;;;;;;;3.92;1.50;;;18.90;27.10;;;;;;5092796;28;20387;-47
2022/07/10 09:22:05;;;;;;;5.22;1.45;;;19.10;28.50;;;;;;5109775;28;20080;-46
2022/07/10 09:24:40;;;;;;;5.43;1.42;;;19.50;29.50;;;;;;5076029;28;20019;-46
2022/07/10 09:27:06;;;;;;;5.90;1.30;;;19.80;26.40;;;;;;5098210;28;20043;-47
2022/07/10 09:29:33;;;;;;;7.57;1.70;;;19.90;27.10;;;;;;5107175;28;20023;-46
2022/07/10 09:32:01;;;;;;;4.85;1.48;;;20.10;25.10;;;;;;5109421;28;20052;-47
2022/07/10 09:34:40;;;;;;;4.93;1.20;;;20.20;26.80;;;;;;5091059;28;20782;-48
2022/07/10 09:37:26;;;;;;;5.80;1.23;;;20.20;22.40;;;;;;5109499;28;20020;-48
2022/07/10 09:39:53;;;;;;;4.82;1.33;;;20.20;22.50;;;;;;5094621;28;20030;-49
2022/07/10 09:42:30;;;;;;;2.15;1.00;;;20.30;24.30;;;;;;5109540;28;20026;-47
2022/07/10 09:45:17;;;;;;;4.07;1.27;;;20.50;23.00;;;;;;5094733;28;20093;-46
2022/07/10 09:48:02;;;;;;;2.88;1.10;;;20.50;20.00;;;;;;5071347;28;20029;-47
2022/07/10 09:50:33;;;;;;;8.02;1.45;;;20.60;22.30;;;;;;5067645;28;20696;-50
2022/07/10 09:53:00;;;;;;;3.15;1.00;;;20.50;22.10;;;;;;5079294;28;20020;-46
2022/07/10 09:55:29;;;;;;;2.80;1.30;;;20.40;21.80;;;;;;5091833;28;20554;-48
2022/07/10 09:58:03;;;;;;;2.83;1.17;;;20.40;21.70;;;;;;5080025;28;20064;-49
2022/07/10 10:00:40;;;;;;;8.15;1.45;;;20.60;21.10;;;;;;5094948;28;20101;-49
2022/07/10 10:03:08;;;;;;;5.65;1.20;;;20.80;20.00;;;;;;5080826;27;20480;-48
2022/07/10 10:05:53;;;;;;;3.63;1.00;;;21.00;20.80;;;;;;5093717;28;20035;-47
2022/07/10 10:08:24;;;;;;;3.85;1.52;;;21.00;17.20;;;;;;5075408;27;20132;-46
2022/07/10 10:10:51;;;;;;;2.60;1.35;;;21.10;18.90;;;;;;5079103;28;20032;-47
2022/07/10 10:13:20;;;;;;;9.48;1.67;;;21.10;19.70;;;;;;5078871;27;20023;-45
2022/07/10 10:15:50;;;;;;;4.30;1.70;;;21.20;18.20;;;;;;5085873;27;20035;-46
2022/07/10 10:18:21;;;;;;;5.25;1.15;;;21.10;18.80;;;;;;5093781;28;20135;-46
2022/07/10 10:20:48;;;;;;;7.22;1.40;;;21.20;18.90;;;;;;5113378;28;20032;-46
2022/07/10 10:23:20;;;;;;;3.75;1.33;;;21.20;17.80;;;;;;5116118;27;20085;-47
2022/07/10 10:25:47;;;;;;;3.28;1.38;;;21.20;18.10;;;;;;5079043;28;20015;-46
2022/07/10 10:28:15;;;;;;;5.25;1.50;;;21.30;19.00;;;;;;5095614;28;20107;-47
2022/07/10 10:30:43;;;;;;;2.17;1.10;;;21.50;15.90;;;;;;5102141;28;20048;-46
2022/07/10 10:33:34;;;;;;;2.92;0.90;;;21.60;17.70;;;;;;5115201;28;20114;-47
2022/07/10 10:36:02;;;;;;;3.80;1.35;;;21.90;14.60;;;;;;5099602;27;20045;-50
2022/07/10 10:38:48;;;;;;;4.78;1.50;;;22.00;16.30;;;;;;5115905;27;20032;-46
2022/07/10 10:41:24;;;;;;;4.13;1.27;;;22.00;14.30;;;;;;5074523;28;20033;-47
2022/07/10 10:44:16;;;;;;;3.13;1.10;;;22.20;14.30;;;;;;5114953;28;20034;-46
2022/07/10 10:46:53;;;;;;;4.82;1.20;;;22.30;12.70;;;;;;5075029;28;20407;-48
2022/07/10 10:49:19;;;;;;;3.47;1.15;;;22.50;14.10;;;;;;5104781;28;20020;-47
2022/07/10 10:52:01;;;;;;;3.03;1.00;;;22.70;15.40;;;;;;5115697;27;20035;-48
2022/07/10 10:54:28;;;;;;;8.05;1.13;;;22.70;12.10;;;;;;5075208;27;20073;-49
2022/07/10 10:57:16;;;;;;;2.22;1.00;;;22.70;14.10;;;;;;5079205;28;20029;-47
2022/07/10 11:00:00;;;;;;;3.28;1.30;;;22.50;11.10;;;;;;5072848;28;20047;-44
2022/07/10 11:02:26;;;;;;;2.95;1.20;;;22.30;11.40;;;;;;5088117;28;20049;-44
2022/07/10 11:05:12;;;;;;;4.43;1.10;;;22.10;13.10;;;;;;5082285;27;20029;-45
2022/07/10 11:08:03;;;;;;;4.35;1.15;;;22.10;11.30;;;;;;5079840;28;20035;-47
2022/07/10 11:10:33;;;;;;;3.13;0.80;;;22.10;12.70;;;;;;5081051;28;20484;-46
2022/07/10 11:13:12;;;;;;;3.92;1.20;;;22.20;13.80;;;;;;5089218;28;20035;-42
2022/07/10 11:15:43;;;;;;;5.43;1.52;;;22.30;13.00;;;;;;5075149;28;20055;-45
2022/07/10 11:18:13;;;;;;;3.80;1.13;;;22.30;13.10;;;;;;5080020;28;20096;-45
2022/07/10 11:20:44;;;;;;;3.65;1.10;;;22.50;13.80;;;;;;5083684;28;20036;-47
2022/07/10 11:23:28;;;;;;;4.32;1.50;;;22.60;13.20;;;;;;5078386;28;20555;-45
2022/07/10 11:26:07;;;;;;;2.85;1.08;;;22.60;12.70;;;;;;5080164;28;20035;-46
2022/07/10 11:28:55;;;;;;;3.08;1.10;;;22.50;9.60;;;;;;5089887;28;20040;-46
2022/07/10 11:31:25;;;;;;;2.45;1.55;;;22.30;11.20;;;;;;5082986;28;20131;-48
2022/07/10 11:33:55;;;;;;;3.70;1.05;;;22.30;12.40;;;;;;5068807;28;20086;-45
2022/07/10 11:36:32;;;;;;;4.03;1.27;;;22.20;11.00;;;;;;5082632;28;20082;-45
2022/07/10 11:39:07;;;;;;;4.18;1.20;;;22.00;11.40;;;;;;5067953;28;20032;-47
2022/07/10 11:41:34;;;;;;;2.10;0.70;;;21.90;12.30;;;;;;5064770;28;20041;-46
2022/07/10 11:44:02;;;;;;;5.63;1.15;;;21.80;12.40;;;;;;5073354;28;20043;-45
2022/07/10 11:46:30;;;;;;;2.90;0.93;;;21.70;12.70;;;;;;5074776;28;20040;-45
2022/07/10 11:48:57;;;;;;;4.05;1.02;;;21.70;12.50;;;;;;5078365;28;20016;-46
2022/07/10 11:51:28;;;;;;;4.75;1.30;;;21.70;12.10;;;;;;5088355;28;20028;-45
2022/07/10 11:54:00;;;;;;;2.47;1.05;;;21.60;12.60;;;;;;5067978;28;20098;-45
2022/07/10 11:56:27;;;;;;;4.05;1.27;;;21.70;12.60;;;;;;5066693;28;20025;-45
2022/07/10 11:59:05;;;;;;;4.63;1.40;;;21.60;11.00;;;;;;5067867;28;20056;-47
2022/07/10 12:01:35;;;;;;;5.72;0.93;;;21.60;11.00;;;;;;5067866;28;20048;-42
2022/07/10 12:04:02;;;;;;;4.95;1.73;;;21.60;11.90;;;;;;5066262;28;20036;-41
2022/07/10 12:06:28;;;;;;;3.35;0.77;;;21.40;10.00;;;;;;5070270;28;20504;-41
2022/07/10 12:08:54;;;;;;;3.90;1.38;;;21.20;12.30;;;;;;5066983;28;20064;-43
2022/07/10 12:11:21;;;;;;;2.90;1.10;;;21.30;12.40;;;;;;5070647;28;20051;-41
2022/07/10 12:13:50;;;;;;;2.92;1.27;;;21.20;11.80;;;;;;5075323;28;20026;-43
2022/07/10 12:16:16;;;;;;;2.55;0.75;;;21.20;11.80;;;;;;5071269;28;20040;-44
2022/07/10 12:18:42;;;;;;;3.85;1.23;;;21.20;12.40;;;;;;5070130;28;20028;-45
2022/07/10 12:21:09;;;;;;;2.53;1.10;;;21.00;12.00;;;;;;5069584;28;20036;-44
2022/07/10 12:23:38;;;;;;;5.80;1.05;;;21.00;11.70;;;;;;5072591;28;20036;-41
2022/07/10 12:26:04;;;;;;;2.42;1.02;;;20.90;11.50;;;;;;5074818;28;20046;-40
2022/07/10 12:28:29;;;;;;;3.65;0.93;;;20.90;11.70;;;;;;5070344;28;20040;-46
2022/07/10 12:30:55;;;;;;;3.05;0.90;;;20.80;11.90;;;;;;5077041;28;20131;-46
2022/07/10 12:33:22;;;;;;;6.22;1.55;;;20.80;12.40;;;;;;5077110;28;20561;-41
2022/07/10 12:35:55;;;;;;;2.53;0.95;;;20.80;11.70;;;;;;5108570;28;20027;-41
2022/07/10 12:38:22;;;;;;;2.78;1.25;;;20.80;10.50;;;;;;5072301;28;20170;-42
2022/07/10 12:40:48;;;;;;;3.67;1.00;;;20.50;11.20;;;;;;5109382;28;20063;-48
2022/07/10 12:43:27;;;;;;;4.85;1.27;;;20.50;12.60;;;;;;5073644;28;20550;-44
2022/07/10 12:46:12;;;;;;;2.17;0.82;;;20.60;12.20;;;;;;5091721;28;20043;-41
2022/07/10 12:48:40;;;;;;;3.67;1.00;;;20.80;12.40;;;;;;5088965;28;20060;-45
2022/07/10 12:51:29;;;;;;;2.65;1.00;;;20.70;11.50;;;;;;5076801;28;20051;-43
2022/07/10 12:53:55;;;;;;;5.38;1.30;;;20.70;11.30;;;;;;5068738;28;20067;-44
2022/07/10 12:56:37;;;;;;;2.35;1.00;;;20.80;11.00;;;;;;5071952;28;20458;-41
2022/07/10 12:59:13;;;;;;;2.92;0.90;;;20.80;11.20;;;;;;5089979;28;20028;-41